createdAt,value
2019-02-08T00:03:17.110Z,99.90
2019-02-08T00:08:11.088Z,99.90
2019-02-08T00:13:04.931Z,99.90
2019-02-08T00:17:57.460Z,99.90
2019-02-08T00:22:51.462Z,99.90
2019-02-08T00:27:45.453Z,99.90
2019-02-08T00:32:37.486Z,99.90
2019-02-08T00:37:29.702Z,99.90
2019-02-08T00:42:21.507Z,99.90
2019-02-08T00:47:13.718Z,99.90
2019-02-08T00:52:06.038Z,99.90
2019-02-08T00:56:58.090Z,99.90
2019-02-08T01:01:50.266Z,99.90
2019-02-08T01:06:42.277Z,99.90
2019-02-08T01:11:36.199Z,99.90
2019-02-08T01:16:30.345Z,99.90
2019-02-08T01:21:23.883Z,99.90
2019-02-08T01:26:17.467Z,99.90
2019-02-08T01:31:10.697Z,99.90
2019-02-08T01:36:02.072Z,99.90
2019-02-08T01:40:53.700Z,99.90
2019-02-08T01:45:45.874Z,99.90
2019-02-08T01:50:39.514Z,99.90
2019-02-08T01:55:31.023Z,99.90
2019-02-08T02:00:22.984Z,99.90
2019-02-08T02:05:17.213Z,99.90
2019-02-08T02:10:08.724Z,99.90
2019-02-08T02:15:00.801Z,99.90
2019-02-08T02:19:53.970Z,99.90
2019-02-08T02:24:46.587Z,99.90
2019-02-08T02:29:38.469Z,99.90
2019-02-08T02:34:30.517Z,99.90
2019-02-08T02:39:22.625Z,99.90
2019-02-08T02:44:14.546Z,99.90
2019-02-08T02:49:06.510Z,99.90
2019-02-08T02:54:05.989Z,99.90
2019-02-08T02:58:56.821Z,99.90
2019-02-08T03:03:48.761Z,99.90
2019-02-08T03:08:41.148Z,99.90
2019-02-08T03:13:32.964Z,99.90
2019-02-08T03:18:25.029Z,99.90
2019-02-08T03:23:17.752Z,99.90
2019-02-08T03:28:09.538Z,99.90
2019-02-08T03:33:01.738Z,99.90
2019-02-08T03:37:57.686Z,99.90
2019-02-08T03:42:50.689Z,99.90
2019-02-08T03:47:43.907Z,99.90
2019-02-08T03:52:37.584Z,99.90
2019-02-08T03:57:30.497Z,99.90
2019-02-08T04:02:22.447Z,99.90
2019-02-08T04:07:14.398Z,99.90
2019-02-08T04:12:06.658Z,99.90
2019-02-08T04:16:58.602Z,99.90
2019-02-08T04:21:50.779Z,99.90
2019-02-08T04:26:42.740Z,99.90
2019-02-08T04:31:34.705Z,99.90
2019-02-08T04:36:26.917Z,99.90
2019-02-08T04:41:19.242Z,99.90
2019-02-08T04:46:11.141Z,99.90
2019-02-08T04:51:03.290Z,99.90
2019-02-08T04:55:55.267Z,99.90
2019-02-08T05:00:53.441Z,99.90
2019-02-08T05:05:42.667Z,99.90
2019-02-08T05:10:34.582Z,99.90
2019-02-08T05:15:26.565Z,99.90
2019-02-08T05:20:18.711Z,99.90
2019-02-08T05:25:20.850Z,99.90
2019-02-08T05:30:07.012Z,99.90
2019-02-08T05:34:58.118Z,99.90
2019-02-08T05:39:50.200Z,99.90
2019-02-08T05:44:44.034Z,99.90
2019-02-08T05:49:35.571Z,99.90
2019-02-08T05:54:27.670Z,99.90
2019-02-08T05:59:19.436Z,99.90
2019-02-08T06:04:11.509Z,99.90
2019-02-08T06:09:03.328Z,99.90
2019-02-08T06:13:55.155Z,99.90
2019-02-08T06:18:47.105Z,99.90
2019-02-08T06:23:39.313Z,99.90
2019-02-08T06:28:31.874Z,99.90
2019-02-08T06:33:23.854Z,99.90
2019-02-08T06:38:16.456Z,99.90
2019-02-08T06:43:08.519Z,99.90
2019-02-08T06:48:01.585Z,99.90
2019-02-08T06:52:53.805Z,99.90
2019-02-08T06:57:46.005Z,99.90
2019-02-08T07:02:38.087Z,99.90
2019-02-08T07:07:32.140Z,99.90
2019-02-08T07:12:25.685Z,99.90
2019-02-08T07:17:17.398Z,99.90
2019-02-08T07:22:09.425Z,99.90
2019-02-08T07:27:03.455Z,99.90
2019-02-08T07:31:57.264Z,99.90
2019-02-08T07:36:48.693Z,99.90
2019-02-08T07:41:42.600Z,99.90
2019-02-08T07:46:36.267Z,99.90
2019-02-08T07:51:27.740Z,99.90
2019-02-08T07:56:21.354Z,99.90
2019-02-08T08:01:15.227Z,99.90
2019-02-08T08:06:09.346Z,99.90
2019-02-08T08:11:00.650Z,99.90
2019-02-08T08:15:50.877Z,99.90
2019-02-08T08:20:42.526Z,99.90
2019-02-08T08:25:35.523Z,99.90
2019-02-08T08:30:27.930Z,99.90
2019-02-08T08:35:21.656Z,99.90
2019-02-08T08:40:14.786Z,99.90
2019-02-08T08:45:06.573Z,99.90
2019-02-08T08:49:58.426Z,99.90
2019-02-08T08:54:50.263Z,99.90
2019-02-08T08:59:42.390Z,99.90
2019-02-08T09:04:36.064Z,99.90
2019-02-08T09:09:29.361Z,99.90
2019-02-08T09:14:22.758Z,99.90
2019-02-08T09:19:15.630Z,99.90
2019-02-08T09:24:07.010Z,99.90
2019-02-08T09:28:58.954Z,99.90
2019-02-08T09:33:51.144Z,99.90
2019-02-08T09:38:43.581Z,99.90
2019-02-08T09:43:35.778Z,99.90
2019-02-08T09:48:30.181Z,99.90
2019-02-08T09:53:23.703Z,99.90
2019-02-08T09:58:15.359Z,99.90
2019-02-08T09:58:53.355Z,99.90
2019-02-08T10:03:44.413Z,99.90
2019-02-08T10:08:38.826Z,99.90
2019-02-08T10:13:32.744Z,99.90
2019-02-08T10:18:24.794Z,99.90
2019-02-08T10:23:17.132Z,99.90
2019-02-08T10:28:09.229Z,99.90
2019-02-08T10:33:01.562Z,99.90
2019-02-08T10:37:55.322Z,99.90
2019-02-08T10:42:47.161Z,99.90
2019-02-08T10:47:41.178Z,99.90
2019-02-08T10:52:33.266Z,99.70
2019-02-08T10:57:27.562Z,99.90
2019-02-08T11:02:19.231Z,99.50
2019-02-08T11:07:11.249Z,99.80
2019-02-08T11:12:05.426Z,99.70
2019-02-08T11:16:57.515Z,99.30
2019-02-08T11:21:51.722Z,99.20
2019-02-08T11:26:43.618Z,98.90
2019-02-08T11:31:35.895Z,98.70
2019-02-08T11:36:28.915Z,98.50
2019-02-08T11:41:20.582Z,97.90
2019-02-08T11:46:12.775Z,97.60
2019-02-08T11:51:05.408Z,97.90
2019-02-08T11:55:59.545Z,98.00
2019-02-08T12:00:51.450Z,98.00
2019-02-08T12:05:43.450Z,98.00
2019-02-08T12:10:37.534Z,99.10
2019-02-08T12:15:31.190Z,99.40
2019-02-08T12:20:24.803Z,99.90
2019-02-08T12:25:18.387Z,99.90
2019-02-08T12:30:09.522Z,99.90
2019-02-08T12:35:01.657Z,99.90
2019-02-08T12:39:53.675Z,99.90
2019-02-08T12:44:48.217Z,99.90
2019-02-08T12:49:40.551Z,99.60
2019-02-08T12:54:32.602Z,99.10
2019-02-08T12:59:26.827Z,98.60
2019-02-08T13:04:18.524Z,97.80
2019-02-08T13:09:11.163Z,97.30
2019-02-08T13:14:05.560Z,97.00
2019-02-08T13:18:57.199Z,96.10
2019-02-08T13:23:51.361Z,95.40
2019-02-08T13:28:43.119Z,95.50
2019-02-08T13:33:35.168Z,95.20
2019-02-08T13:38:28.001Z,95.10
2019-02-08T13:43:20.618Z,93.80
2019-02-08T13:48:12.064Z,93.10
2019-02-08T13:53:06.090Z,92.60
2019-02-08T13:57:59.876Z,92.70
2019-02-08T14:02:51.622Z,93.20
2019-02-08T14:07:43.671Z,92.70
2019-02-08T14:12:37.925Z,92.30
2019-02-08T14:17:31.931Z,92.60
2019-02-08T14:22:25.224Z,93.10
2019-02-08T14:27:17.321Z,93.10
2019-02-08T14:32:09.349Z,92.80
2019-02-08T14:37:01.683Z,92.00
2019-02-08T14:41:54.266Z,92.00
2019-02-08T14:46:46.781Z,91.50
2019-02-08T14:51:39.158Z,91.20
2019-02-08T14:56:32.125Z,91.10
2019-02-08T15:01:24.086Z,91.30
2019-02-08T15:06:18.270Z,91.50
2019-02-08T15:11:09.911Z,91.50
2019-02-08T15:16:02.376Z,91.60
2019-02-08T15:20:56.744Z,91.80
2019-02-08T15:25:48.726Z,92.00
2019-02-08T15:30:40.962Z,92.20
2019-02-08T15:35:36.516Z,92.30
2019-02-08T15:40:30.050Z,94.90
2019-02-08T15:45:21.376Z,97.00
2019-02-08T15:50:15.472Z,97.70
2019-02-08T15:55:07.475Z,97.90
2019-02-08T15:59:59.458Z,97.70
2019-02-08T16:04:51.633Z,98.00
2019-02-08T16:09:43.503Z,98.00
2019-02-08T16:14:35.533Z,97.40
2019-02-08T16:19:27.896Z,95.90
2019-02-08T16:24:22.091Z,94.90
2019-02-08T16:29:14.938Z,93.90
2019-02-08T16:34:07.178Z,93.50
2019-02-08T16:38:59.541Z,93.30
2019-02-08T16:43:52.173Z,93.10
2019-02-08T16:48:44.081Z,92.80
2019-02-08T16:53:38.247Z,92.80
2019-02-08T16:58:30.707Z,93.20
2019-02-08T17:03:22.623Z,93.70
2019-02-08T17:08:15.218Z,94.10
2019-02-08T17:10:37.825Z,94.00
2019-02-08T17:10:59.017Z,94.00
2019-02-08T17:12:42.418Z,94.00
2019-02-08T17:13:10.907Z,94.00
2019-02-08T17:14:15.213Z,94.10
2019-02-08T17:15:51.771Z,94.00
2019-02-08T17:16:22.835Z,94.00
2019-02-08T17:52:12.125Z,95.10
2019-02-08T17:57:04.277Z,95.30
2019-02-08T18:02:40.662Z,95.10
2019-02-08T18:03:53.622Z,95.10
2019-02-08T18:06:02.830Z,95.10
2019-02-08T18:06:29.440Z,95.10
2019-02-08T18:07:49.226Z,95.10
2019-02-08T18:12:42.192Z,95.30
2019-02-08T18:17:35.619Z,95.40
2019-02-08T18:22:29.339Z,95.30
2019-02-08T18:27:21.595Z,95.30
2019-02-08T18:32:15.571Z,95.20
2019-02-08T18:37:09.436Z,95.10
2019-02-08T18:42:03.092Z,95.10
2019-02-08T18:46:55.059Z,95.00
2019-02-08T18:51:49.692Z,95.00
2019-02-08T18:56:43.288Z,95.10
2019-02-08T19:01:37.747Z,94.90
2019-02-08T19:06:31.524Z,94.80
2019-02-08T19:11:25.473Z,94.80
2019-02-08T19:16:19.146Z,94.70
2019-02-08T19:21:13.096Z,94.70
2019-02-08T19:26:06.866Z,94.70
2019-02-08T19:31:00.358Z,94.80
2019-02-08T19:35:54.044Z,94.50
2019-02-08T19:40:47.547Z,94.70
2019-02-08T19:45:39.713Z,94.70
2019-02-08T19:50:33.782Z,94.60
2019-02-08T19:55:28.575Z,94.80
2019-02-08T20:00:22.054Z,95.40
2019-02-08T20:05:16.632Z,95.20
2019-02-08T20:10:07.980Z,95.90
2019-02-08T20:15:01.986Z,95.40
2019-02-08T20:19:55.796Z,95.80
2019-02-08T20:24:47.573Z,95.80
2019-02-08T20:29:41.786Z,95.60
2019-02-08T20:34:35.402Z,95.90
2019-02-08T20:39:29.050Z,96.00
2019-02-08T20:44:22.831Z,96.50
2019-02-08T20:49:16.568Z,96.10
2019-02-08T20:54:10.217Z,96.70
2019-02-08T20:59:02.442Z,96.30
2019-02-08T21:03:56.376Z,96.40
2019-02-08T21:08:49.885Z,96.20
2019-02-08T21:13:41.962Z,96.40
2019-02-08T21:18:35.678Z,96.20
2019-02-08T21:23:29.358Z,96.20
2019-02-08T21:28:24.053Z,95.90
2019-02-08T21:33:17.595Z,95.90
2019-02-08T21:38:09.210Z,95.90
2019-02-08T21:43:01.455Z,96.10
2019-02-08T21:47:55.310Z,96.20
2019-02-08T21:52:49.155Z,97.50
2019-02-08T21:57:43.164Z,99.90
2019-02-08T22:02:36.294Z,99.90
2019-02-08T22:07:38.525Z,99.90
2019-02-08T22:12:30.711Z,99.90
2019-02-08T22:17:24.167Z,99.90
2019-02-08T22:22:15.442Z,99.90
2019-02-08T22:27:09.591Z,99.90
2019-02-08T22:32:02.989Z,99.90
2019-02-08T22:36:56.865Z,99.90
2019-02-08T22:41:48.306Z,99.90
2019-02-08T22:46:41.282Z,99.90
2019-02-08T22:51:34.697Z,99.90
2019-02-08T22:56:28.818Z,99.90
2019-02-08T23:01:23.156Z,99.90
2019-02-08T23:06:16.798Z,99.90
2019-02-08T23:11:08.596Z,99.90
2019-02-08T23:16:00.124Z,99.90
2019-02-08T23:20:51.853Z,99.90
2019-02-08T23:25:43.891Z,99.90
2019-02-08T23:30:37.791Z,99.90
2019-02-08T23:35:29.239Z,99.90
2019-02-08T23:40:21.959Z,99.90
2019-02-08T23:45:13.961Z,99.90
2019-02-08T23:50:05.854Z,99.90
2019-02-08T23:54:57.942Z,99.90
2019-02-08T23:59:51.819Z,99.90
